Time;durP1;ratioP1;P1;durP2;ratioP2;P2;SDS_P1;SDS_P2;PMS_P1;PMS_P2;Temp;Humidity;BMP_temperature;BMP_pressure;BME280_temperature;BME280_humidity;BME280_pressure;Samples;Min_cycle;Max_cycle;Signal;HPM_P1;HPM_P2
2021/06/05 00:00:58;;;;;;;10.23;4.15;;;;;;;23.96;39.97;100273.81;4483138;32;33512;-67
2021/06/05 00:03:26;;;;;;;10.90;4.05;;;;;;;23.96;39.99;100271.09;4481882;32;33468;-67
2021/06/05 00:05:58;;;;;;;10.15;4.40;;;;;;;23.95;39.97;100276.75;4481638;32;33846;-66
2021/06/05 00:08:31;;;;;;;9.07;4.30;;;;;;;23.95;39.99;100276.75;4483303;32;34444;-66
2021/06/05 00:11:04;;;;;;;9.05;4.32;;;;;;;23.95;39.96;100265.84;4482796;32;32984;-67
2021/06/05 00:13:35;;;;;;;9.75;4.53;;;;;;;23.95;39.86;100263.13;4482301;32;33731;-65
2021/06/05 00:16:04;;;;;;;6.75;4.07;;;;;;;23.92;39.89;100267.97;4482401;32;33783;-67
2021/06/05 00:18:32;;;;;;;11.00;4.10;;;;;;;23.92;39.96;100265.25;4481866;32;33919;-66
2021/06/05 00:21:00;;;;;;;7.53;4.20;;;;;;;23.92;39.92;100262.53;4482845;32;33194;-67
2021/06/05 00:23:27;;;;;;;7.80;3.92;;;;;;;23.92;39.91;100269.84;4481908;32;33753;-67
2021/06/05 00:25:58;;;;;;;7.45;3.87;;;;;;;23.91;39.81;100260.84;4482200;32;33906;-67
2021/06/05 00:28:25;;;;;;;6.28;3.90;;;;;;;23.91;39.79;100270.91;4482937;32;34605;-67
2021/06/05 00:30:53;;;;;;;8.95;4.30;;;;;;;23.91;39.75;100265.47;4482401;32;34483;-67
2021/06/05 00:33:20;;;;;;;6.70;3.80;;;;;;;23.90;39.77;100270.06;4482096;32;33767;-65
2021/06/05 00:35:48;;;;;;;5.10;3.25;;;;;;;23.89;39.77;100262.97;4481805;32;33897;-67
2021/06/05 00:38:16;;;;;;;7.43;3.95;;;;;;;23.90;39.77;100263.78;4482811;32;34440;-66
2021/06/05 00:40:46;;;;;;;5.87;4.03;;;;;;;23.90;39.82;100261.06;4480987;32;33434;-67
2021/06/05 00:43:15;;;;;;;7.72;4.50;;;;;;;23.89;39.93;100260.22;4466893;32;33845;-65
2021/06/05 00:45:44;;;;;;;6.32;4.00;;;;;;;23.90;39.89;100259.16;4481938;32;32420;-66
2021/06/05 00:48:13;;;;;;;15.13;4.20;;;;;;;23.90;39.91;100255.62;4482804;32;33948;-66
2021/06/05 00:50:42;;;;;;;7.62;3.90;;;;;;;23.90;39.98;100242.81;4481679;32;33411;-66
2021/06/05 00:53:10;;;;;;;8.82;3.85;;;;;;;23.89;40.03;100248.50;4480631;32;34495;-66
2021/06/05 00:55:42;;;;;;;6.75;4.32;;;;;;;23.89;40.00;100245.78;4468174;32;33867;-65
2021/06/05 00:58:10;;;;;;;7.75;4.28;;;;;;;23.88;40.10;100241.38;4469237;32;33844;-67
2021/06/05 01:00:46;;;;;;;10.15;4.35;;;;;;;23.88;40.14;100244.94;4469180;32;34189;-64
2021/06/05 01:03:15;;;;;;;9.88;4.12;;;;;;;23.88;40.15;100234.03;4476252;32;34593;-65
2021/06/05 01:05:43;;;;;;;10.27;4.30;;;;;;;23.87;40.12;100237.78;4482873;32;33488;-66
2021/06/05 01:08:30;;;;;;;5.95;4.03;;;;;;;23.87;40.13;100235.06;4483571;32;34356;-67
2021/06/05 01:11:04;;;;;;;8.13;3.95;;;;;;;23.87;40.16;100235.06;4480827;32;34029;-67
2021/06/05 01:13:46;;;;;;;7.60;4.12;;;;;;;23.86;40.04;100225.22;4468502;32;33866;-65
2021/06/05 01:16:16;;;;;;;9.13;4.45;;;;;;;23.86;40.01;100221.69;4471410;32;33774;-67
2021/06/05 01:18:56;;;;;;;7.37;4.00;;;;;;;23.86;40.08;100213.50;4483754;32;33746;-67
2021/06/05 01:21:39;;;;;;;5.87;3.72;;;;;;;23.86;40.11;100224.41;4483799;32;33365;-67
2021/06/05 01:24:22;;;;;;;7.40;4.20;;;;;;;23.86;40.10;100221.69;4483813;32;33774;-67
2021/06/05 01:27:17;;;;;;;6.57;3.80;;;;;;;23.86;40.10;100222.50;4484190;32;33892;-66
2021/06/05 01:29:49;;;;;;;7.00;4.10;;;;;;;23.85;40.11;100228.19;4483066;32;34455;-67
2021/06/05 01:32:17;;;;;;;8.00;4.32;;;;;;;23.83;40.09;100216.69;4484565;32;34164;-66
2021/06/05 01:34:48;;;;;;;6.10;3.80;;;;;;;23.83;40.09;100212.06;4484036;32;33598;-66
2021/06/05 01:37:17;;;;;;;7.60;3.70;;;;;;;23.83;40.05;100211.22;4483696;32;34848;-67
2021/06/05 01:39:48;;;;;;;7.55;4.03;;;;;;;23.82;39.93;100209.53;4470907;32;33971;-67
2021/06/05 01:42:24;;;;;;;6.45;3.92;;;;;;;23.82;39.93;100206.81;4470408;32;34216;-66
2021/06/05 01:44:53;;;;;;;6.10;3.62;;;;;;;23.82;39.92;100204.91;4483459;32;33782;-66
2021/06/05 01:47:21;;;;;;;5.63;3.60;;;;;;;23.81;39.85;100203.25;4483424;32;34659;-67
2021/06/05 01:49:49;;;;;;;6.18;4.03;;;;;;;23.82;39.85;100206.81;4470542;32;33778;-67
2021/06/05 01:52:22;;;;;;;5.55;3.67;;;;;;;23.82;39.86;100204.09;4470087;32;33257;-67
2021/06/05 01:55:02;;;;;;;6.65;4.10;;;;;;;23.79;39.82;100202.66;4471055;32;33821;-67
2021/06/05 01:57:31;;;;;;;7.50;3.75;;;;;;;23.82;39.91;100198.62;4483536;32;34543;-67
2021/06/05 02:00:00;;;;;;;9.38;4.05;;;;;;;23.81;39.88;100196.97;4483085;32;33789;-67
2021/06/05 02:02:35;;;;;;;6.55;3.62;;;;;;;23.79;39.86;100194.47;4483075;32;32731;-67
2021/06/05 02:05:05;;;;;;;6.57;3.50;;;;;;;23.80;39.86;100196.13;4484664;32;33917;-67
2021/06/05 02:07:33;;;;;;;7.93;4.12;;;;;;;23.80;39.87;100184.41;4482501;32;33927;-65
2021/06/05 02:10:06;;;;;;;9.52;4.00;;;;;;;23.80;39.82;100184.41;4483165;32;33713;-67
2021/06/05 02:12:34;;;;;;;7.37;3.78;;;;;;;23.78;39.93;100179.19;4481113;32;85883;-67
2021/06/05 02:15:14;;;;;;;8.35;4.87;;;;;;;23.79;39.94;100178.12;4484530;32;34405;-66
2021/06/05 02:17:43;;;;;;;8.02;3.50;;;;;;;23.78;39.91;100173.75;4483181;32;33826;-66
2021/06/05 02:20:19;;;;;;;7.05;3.75;;;;;;;23.80;39.87;100178.97;4483399;32;33801;-66
2021/06/05 02:22:47;;;;;;;5.57;3.35;;;;;;;23.79;39.95;100178.12;4482937;32;33968;-65
2021/06/05 02:25:16;;;;;;;5.65;3.30;;;;;;;23.78;40.13;100173.75;4470112;32;33595;-67
2021/06/05 02:27:49;;;;;;;9.60;4.32;;;;;;;23.78;40.20;100179.19;4484670;32;33780;-67
2021/06/05 02:30:18;;;;;;;7.12;3.58;;;;;;;23.79;40.08;100171.84;4483244;32;34037;-66
2021/06/05 02:32:47;;;;;;;5.75;3.90;;;;;;;23.79;40.06;100166.41;4482625;32;33251;-67
2021/06/05 02:35:19;;;;;;;8.68;3.60;;;;;;;23.79;40.11;100163.69;4470427;32;33804;-67
2021/06/05 02:37:48;;;;;;;6.75;3.90;;;;;;;23.77;40.14;100163.88;4483127;32;33345;-67
2021/06/05 02:40:20;;;;;;;5.70;3.30;;;;;;;23.77;40.35;100161.16;4482199;32;33472;-67
2021/06/05 02:42:48;;;;;;;7.43;3.55;;;;;;;23.77;40.46;100154.88;4482646;32;33373;-66
2021/06/05 02:45:19;;;;;;;4.90;3.33;;;;;;;23.77;40.16;100158.41;4482440;32;34734;-67
2021/06/05 02:47:55;;;;;;;9.57;3.95;;;;;;;23.76;40.22;100162.22;4482936;32;33554;-67
2021/06/05 02:50:23;;;;;;;7.00;3.67;;;;;;;23.76;40.30;100162.22;4483967;32;33738;-65
2021/06/05 02:52:52;;;;;;;6.82;3.65;;;;;;;23.77;40.20;100163.03;4482281;32;33282;-67
2021/06/05 02:55:21;;;;;;;6.47;4.07;;;;;;;23.78;40.18;100164.69;4483998;32;34686;-67
2021/06/05 02:57:49;;;;;;;5.87;3.55;;;;;;;23.77;40.16;100160.31;4484275;32;33973;-67
2021/06/05 03:00:26;;;;;;;6.60;3.53;;;;;;;23.77;40.17;100172.03;4484092;32;33821;-66
2021/06/05 03:02:54;;;;;;;6.62;3.42;;;;;;;23.77;40.20;100157.59;4483809;32;33322;-66
2021/06/05 03:05:23;;;;;;;5.93;3.80;;;;;;;23.77;40.18;100160.31;4484140;32;33541;-65
2021/06/05 03:07:51;;;;;;;6.80;3.28;;;;;;;23.76;40.19;100156.75;4484159;32;33800;-66
2021/06/05 03:10:20;;;;;;;5.53;3.50;;;;;;;23.75;40.22;100155.09;4484090;32;33870;-65
2021/06/05 03:12:48;;;;;;;5.22;3.53;;;;;;;23.74;40.18;100153.44;4483928;32;33154;-67
2021/06/05 03:15:17;;;;;;;5.70;3.65;;;;;;;23.76;40.09;100151.31;4482779;32;33825;-65
2021/06/05 03:17:49;;;;;;;5.65;3.67;;;;;;;23.74;39.97;100145.25;4484096;32;34977;-68
2021/06/05 03:20:19;;;;;;;6.95;3.60;;;;;;;23.76;39.89;100147.75;4482634;32;33959;-66
2021/06/05 03:22:47;;;;;;;7.28;3.53;;;;;;;23.76;39.93;100147.75;4483825;32;34464;-67
2021/06/05 03:25:15;;;;;;;6.45;3.85;;;;;;;23.76;40.00;100150.47;4483898;32;33817;-67
2021/06/05 03:27:44;;;;;;;6.35;3.30;;;;;;;23.76;40.03;100155.94;4483966;32;33948;-66
2021/06/05 03:30:13;;;;;;;6.10;3.05;;;;;;;23.74;39.99;100152.59;4484075;32;33528;-66
2021/06/05 03:32:42;;;;;;;4.80;3.33;;;;;;;23.75;39.86;100152.37;4482261;32;33315;-66
2021/06/05 03:35:11;;;;;;;7.93;4.18;;;;;;;23.75;39.88;100155.09;4483650;32;34525;-66
2021/06/05 03:37:39;;;;;;;6.30;4.03;;;;;;;23.74;39.92;100153.44;4483908;32;33835;-67
2021/06/05 03:40:08;;;;;;;6.05;3.15;;;;;;;23.74;39.95;100152.59;4483358;32;34499;-66
2021/06/05 03:42:36;;;;;;;6.00;3.60;;;;;;;23.73;39.99;100159.91;4483972;32;33889;-67
2021/06/05 03:45:05;;;;;;;5.10;3.45;;;;;;;23.75;40.00;100152.37;4483407;31;33969;-65
2021/06/05 03:47:33;;;;;;;8.88;3.50;;;;;;;23.73;40.12;100149.03;4483707;32;34692;-66
2021/06/05 03:50:05;;;;;;;4.85;3.45;;;;;;;23.74;40.12;100150.72;4483549;32;34587;-67
2021/06/05 03:52:32;;;;;;;6.95;3.42;;;;;;;23.73;40.08;100148.19;4467834;32;33024;-66
2021/06/05 03:55:03;;;;;;;7.47;3.67;;;;;;;23.74;40.04;100156.16;4467923;32;33908;-66
2021/06/05 03:57:33;;;;;;;6.60;3.28;;;;;;;23.75;40.07;100160.53;4467661;32;33842;-66
2021/06/05 04:00:11;;;;;;;9.82;3.65;;;;;;;23.74;40.04;100164.34;4467438;32;33825;-65
2021/06/05 04:02:39;;;;;;;9.10;3.45;;;;;;;23.74;40.17;100158.06;4467591;32;33272;-68
2021/06/05 04:05:08;;;;;;;8.38;3.37;;;;;;;23.74;40.17;100152.59;4467534;32;33538;-68
2021/06/05 04:07:36;;;;;;;10.38;3.83;;;;;;;23.74;40.17;100158.06;4467570;32;33610;-69
2021/06/05 04:10:04;;;;;;;5.75;3.53;;;;;;;23.74;40.15;100153.44;4467459;32;34037;-69
2021/06/05 04:12:32;;;;;;;10.25;3.50;;;;;;;23.74;40.11;100144.44;4481078;32;32179;-67
2021/06/05 04:15:00;;;;;;;10.07;3.53;;;;;;;23.74;40.17;100145.25;4482316;32;34537;-68
2021/06/05 04:17:27;;;;;;;6.72;3.50;;;;;;;23.74;40.20;100136.25;4483252;32;33798;-68
2021/06/05 04:19:56;;;;;;;8.32;3.95;;;;;;;23.73;40.21;100145.47;4482977;32;34647;-67
2021/06/05 04:22:23;;;;;;;8.02;3.50;;;;;;;23.74;40.30;100141.69;4482139;32;33390;-68
2021/06/05 04:24:51;;;;;;;5.72;3.47;;;;;;;23.75;40.16;100143.38;4483002;32;34074;-69
2021/06/05 04:27:19;;;;;;;7.37;3.22;;;;;;;23.74;40.03;100141.69;4482779;32;34805;-68
2021/06/05 04:29:46;;;;;;;7.15;3.60;;;;;;;23.75;40.07;100146.09;4483055;32;34567;-67
2021/06/05 04:32:15;;;;;;;8.63;3.80;;;;;;;23.74;40.15;100142.53;4484392;32;34209;-68
2021/06/05 04:34:43;;;;;;;9.15;4.15;;;;;;;23.74;40.12;100145.25;4484770;32;34576;-68
2021/06/05 04:37:10;;;;;;;9.20;3.72;;;;;;;23.74;40.05;100137.09;4481952;32;34847;-66
2021/06/05 04:39:40;;;;;;;7.22;3.45;;;;;;;23.74;39.95;100134.38;4487611;31;33790;-67
2021/06/05 04:42:08;;;;;;;11.45;3.75;;;;;;;23.75;39.93;100132.47;4488728;31;33253;-67
2021/06/05 04:44:36;;;;;;;6.97;3.70;;;;;;;23.76;39.91;100132.25;4484204;32;34777;-66
2021/06/05 04:47:03;;;;;;;8.07;3.55;;;;;;;23.77;39.87;100124.91;4484549;32;33924;-63
2021/06/05 04:49:32;;;;;;;6.70;3.62;;;;;;;23.78;39.89;100132.00;4484085;32;33704;-62
2021/06/05 04:51:59;;;;;;;8.70;3.67;;;;;;;23.79;39.92;100123.62;4484081;32;33430;-66
2021/06/05 04:54:27;;;;;;;9.50;3.40;;;;;;;23.80;39.93;100121.75;4484740;32;33736;-64
2021/06/05 04:56:55;;;;;;;10.20;3.87;;;;;;;23.81;39.99;100121.50;4484479;32;33382;-67
2021/06/05 04:59:22;;;;;;;9.77;3.42;;;;;;;23.81;40.06;100110.59;4484648;32;33836;-60
2021/06/05 05:01:50;;;;;;;9.88;4.00;;;;;;;23.81;40.12;100107.88;4483232;32;34306;-65
2021/06/05 05:04:18;;;;;;;8.13;3.15;;;;;;;23.84;40.12;100109.34;4484666;32;34803;-64
2021/06/05 05:06:46;;;;;;;7.10;3.65;;;;;;;23.84;40.12;100110.19;4484700;32;33820;-65
2021/06/05 05:09:14;;;;;;;6.72;3.72;;;;;;;23.85;40.12;100105.56;4484381;32;34739;-64
2021/06/05 05:11:42;;;;;;;7.15;3.30;;;;;;;23.84;40.24;100106.62;4484488;32;34041;-68
2021/06/05 05:14:11;;;;;;;9.10;3.55;;;;;;;23.85;40.27;100111.00;4484519;32;33864;-65
2021/06/05 05:16:39;;;;;;;6.93;3.53;;;;;;;23.83;40.33;100113.97;4484592;32;34666;-65
2021/06/05 05:19:07;;;;;;;5.70;3.47;;;;;;;23.86;40.27;100113.50;4483761;32;34224;-65
2021/06/05 05:21:34;;;;;;;7.43;3.50;;;;;;;23.87;40.30;100119.78;4483032;32;34085;-66
2021/06/05 05:24:03;;;;;;;6.87;3.50;;;;;;;23.87;40.30;100117.88;4484601;32;33764;-64
2021/06/05 05:26:31;;;;;;;6.18;3.10;;;;;;;23.88;40.31;100118.75;4484433;32;33936;-65
2021/06/05 05:28:59;;;;;;;10.18;3.30;;;;;;;23.90;40.30;100127.53;4484451;32;34674;-66
2021/06/05 05:31:27;;;;;;;5.90;3.37;;;;;;;23.89;40.35;100125.88;4483617;32;34479;-65
2021/06/05 05:33:55;;;;;;;5.90;3.37;;;;;;;23.90;40.34;100125.63;4483764;32;34780;-64
2021/06/05 05:36:25;;;;;;;6.25;3.08;;;;;;;23.90;40.37;100125.63;4484567;32;34450;-64
2021/06/05 05:38:53;;;;;;;;;;;;;;;23.92;40.34;100131.72;4484601;32;33841;-66
2021/06/05 05:41:22;;;;;;;5.18;3.15;;;;;;;24.02;40.16;100128.47;4484334;32;32845;-66
2021/06/05 05:43:50;;;;;;;5.95;3.08;;;;;;;23.95;40.30;100129.59;4483492;32;34203;-63
2021/06/05 05:46:17;;;;;;;6.62;3.42;;;;;;;23.92;40.43;100128.13;4484199;32;33942;-64
2021/06/05 05:48:45;;;;;;;8.43;3.28;;;;;;;23.91;40.44;100127.28;4484579;32;35435;-65
2021/06/05 05:51:15;;;;;;;4.62;2.90;;;;;;;23.91;40.46;100129.19;4482739;32;34222;-65
2021/06/05 05:53:42;;;;;;;6.30;3.43;;;;;;;23.92;40.48;100130.84;4484073;32;33886;-65
2021/06/05 05:56:11;;;;;;;6.35;3.35;;;;;;;23.93;40.44;100132.53;4484273;32;35516;-64
2021/06/05 05:58:41;;;;;;;5.65;3.03;;;;;;;23.92;40.46;100134.44;4481222;32;33719;-65
2021/06/05 06:01:10;;;;;;;5.53;3.00;;;;;;;23.94;40.46;100142.37;4479104;32;33281;-63
2021/06/05 06:03:43;;;;;;;5.15;3.25;;;;;;;23.95;40.43;100138.59;4481873;32;33777;-64
2021/06/05 06:06:10;;;;;;;5.35;3.05;;;;;;;23.95;40.46;100133.13;4481524;32;34042;-62
2021/06/05 06:08:38;;;;;;;4.30;2.87;;;;;;;23.94;40.50;100131.47;4482508;32;33770;-65
2021/06/05 06:11:06;;;;;;;5.05;2.87;;;;;;;23.95;40.51;100130.41;4483270;32;32279;-65
2021/06/05 06:13:34;;;;;;;6.75;3.05;;;;;;;23.96;40.51;100126.62;4483818;32;33525;-65
2021/06/05 06:16:02;;;;;;;7.25;3.10;;;;;;;23.97;40.52;100128.31;4484103;32;33936;-65
2021/06/05 06:18:30;;;;;;;5.75;2.50;;;;;;;23.97;40.54;100136.50;4472048;32;33893;-64
2021/06/05 06:20:58;;;;;;;5.45;3.20;;;;;;;23.97;40.56;100136.50;4483737;32;34127;-65
2021/06/05 06:23:27;;;;;;;4.93;2.90;;;;;;;23.96;40.69;100133.97;4484040;32;33871;-63
2021/06/05 06:25:57;;;;;;;6.68;2.95;;;;;;;23.95;40.75;100143.22;4483913;32;34759;-65
2021/06/05 06:28:30;;;;;;;5.65;3.50;;;;;;;23.93;40.77;100147.00;4481612;32;34816;-64
2021/06/05 06:30:58;;;;;;;5.15;3.25;;;;;;;23.93;40.79;100136.09;4482780;32;34518;-65
2021/06/05 06:33:26;;;;;;;6.80;3.08;;;;;;;23.92;40.85;100139.88;4471174;32;33983;-64
2021/06/05 06:35:53;;;;;;;5.57;2.90;;;;;;;23.93;40.90;100147.00;4483804;32;33831;-65
2021/06/05 06:38:33;;;;;;;7.62;2.90;;;;;;;23.93;40.92;100141.56;4470022;32;34087;-65
2021/06/05 06:41:00;;;;;;;14.60;4.00;;;;;;;23.95;41.00;100144.03;4471025;32;34347;-64
2021/06/05 06:43:29;;;;;;;8.88;3.55;;;;;;;23.96;41.03;100153.06;4484209;32;33835;-64
2021/06/05 06:46:28;;;;;;;20.52;4.68;;;;;;;23.95;41.15;100152.22;4484268;32;34008;-65
2021/06/05 06:48:57;;;;;;;10.50;4.18;;;;;;;23.96;41.13;100156.59;4481342;32;33661;-65
2021/06/05 06:51:24;;;;;;;17.00;3.70;;;;;;;23.94;41.14;100150.56;4484003;32;35142;-64
2021/06/05 06:53:52;;;;;;;19.08;3.72;;;;;;;23.93;41.19;100143.44;4484044;32;34993;-64
2021/06/05 06:56:20;;;;;;;15.73;3.58;;;;;;;23.93;41.16;100135.28;4483992;32;33502;-64
2021/06/05 06:58:48;;;;;;;15.10;3.87;;;;;;;23.91;41.12;100127.28;4482678;32;33774;-64
2021/06/05 07:01:16;;;;;;;14.15;3.67;;;;;;;23.93;41.08;100143.44;4483911;32;33364;-64
2021/06/05 07:03:44;;;;;;;11.60;3.80;;;;;;;23.93;41.04;100135.28;4482955;32;35193;-64
2021/06/05 07:06:13;;;;;;;11.82;3.70;;;;;;;23.92;41.03;100133.56;4484117;32;34947;-64
2021/06/05 07:08:41;;;;;;;12.65;3.75;;;;;;;23.92;41.03;100131.72;4484030;32;33432;-64
2021/06/05 07:11:17;;;;;;;15.15;3.30;;;;;;;23.94;40.92;100126.03;4483991;32;33359;-65
2021/06/05 07:13:45;;;;;;;10.00;3.80;;;;;;;23.96;40.86;100123.06;4483520;32;33757;-64
2021/06/05 07:16:13;;;;;;;14.55;3.47;;;;;;;23.95;40.86;100122.25;4469765;32;33804;-67
2021/06/05 07:18:40;;;;;;;13.45;3.70;;;;;;;23.95;40.81;100119.50;4480998;32;33844;-64
2021/06/05 07:21:09;;;;;;;37.65;4.70;;;;;;;23.97;40.68;100124.72;4478402;32;33278;-68
2021/06/05 07:23:37;;;;;;;23.92;4.60;;;;;;;23.98;40.66;100121.81;4452072;32;33318;-65
2021/06/05 07:26:07;;;;;;;22.98;5.15;;;;;;;24.00;40.48;100116.94;4470342;32;33797;-65
2021/06/05 07:28:43;;;;;;;17.77;5.10;;;;;;;24.02;40.46;100123.03;4482676;32;33880;-67
2021/06/05 07:31:16;;;;;;;20.52;4.22;;;;;;;24.03;40.39;100111.06;4483630;32;34146;-66
2021/06/05 07:33:44;;;;;;;16.37;4.75;;;;;;;24.04;40.36;100110.00;4482768;32;33907;-67
2021/06/05 07:36:14;;;;;;;17.40;4.35;;;;;;;24.03;40.33;100108.34;4482081;32;34469;-66
2021/06/05 07:38:41;;;;;;;19.55;4.20;;;;;;;24.03;40.32;100105.63;4482587;32;33891;-67
2021/06/05 07:41:09;;;;;;;17.95;4.85;;;;;;;24.05;40.15;100108.94;4482515;32;33388;-67
2021/06/05 07:43:39;;;;;;;14.75;5.95;;;;;;;24.03;40.12;100102.88;4483929;32;34277;-66
2021/06/05 07:46:06;;;;;;;16.48;4.50;;;;;;;24.03;40.13;100105.63;4483596;32;34798;-67
2021/06/05 07:48:35;;;;;;;15.70;4.25;;;;;;;24.06;40.14;100102.44;4483560;32;34481;-67
2021/06/05 07:51:04;;;;;;;16.90;4.97;;;;;;;24.05;40.14;100108.09;4483587;32;33351;-67
2021/06/05 07:53:31;;;;;;;9.15;3.97;;;;;;;24.04;40.00;100109.16;4483394;32;34251;-67
2021/06/05 07:55:59;;;;;;;12.13;4.35;;;;;;;24.04;40.01;100104.56;4483112;32;34092;-67
2021/06/05 07:58:27;;;;;;;15.88;4.87;;;;;;;24.05;40.01;100100.75;4483361;32;34668;-66
2021/06/05 08:00:54;;;;;;;11.40;4.07;;;;;;;24.05;40.02;100094.47;4483101;32;34112;-66
2021/06/05 08:03:22;;;;;;;13.52;4.40;;;;;;;24.06;39.97;100090.69;4483389;32;33759;-66
2021/06/05 08:05:50;;;;;;;12.95;4.15;;;;;;;24.06;39.83;100097.00;4483333;32;33756;-67
2021/06/05 08:08:17;;;;;;;8.95;3.78;;;;;;;24.06;39.87;100094.28;4485221;32;33613;-66
2021/06/05 08:10:51;;;;;;;10.57;3.80;;;;;;;24.06;39.79;100091.56;4485307;32;33306;-66
2021/06/05 08:13:18;;;;;;;12.45;4.28;;;;;;;24.07;39.75;100086.94;4484551;32;33954;-66
2021/06/05 08:15:47;;;;;;;8.98;3.80;;;;;;;24.07;39.69;100079.59;4484780;32;34762;-67
2021/06/05 08:18:15;;;;;;;10.05;4.03;;;;;;;24.07;39.74;100084.19;4484490;32;33228;-66
2021/06/05 08:21:04;;;;;;;11.02;3.90;;;;;;;24.10;39.62;100081.00;4484512;32;34394;-66
2021/06/05 08:23:33;;;;;;;9.90;3.72;;;;;;;24.12;39.56;100078.91;4485187;32;33959;-67
2021/06/05 08:26:01;;;;;;;7.22;3.72;;;;;;;24.10;39.43;100078.28;4485205;32;34064;-66
2021/06/05 08:28:32;;;;;;;10.10;3.40;;;;;;;24.08;39.45;100078.53;4484664;32;34016;-66
2021/06/05 08:31:03;;;;;;;7.47;3.42;;;;;;;24.10;39.51;100078.28;4485116;32;33395;-66
2021/06/05 08:33:31;;;;;;;8.98;3.67;;;;;;;24.10;39.52;100070.94;4484812;32;34700;-67
2021/06/05 08:35:58;;;;;;;9.30;3.78;;;;;;;24.11;39.46;100069.06;4485129;32;34262;-66
2021/06/05 08:38:27;;;;;;;12.32;4.12;;;;;;;24.11;39.49;100069.06;4485171;32;34798;-66
2021/06/05 08:41:51;;;;;;;7.37;3.50;;;;;;;24.09;39.49;100069.28;4485016;32;33263;-66
2021/06/05 08:44:28;;;;;;;9.88;3.85;;;;;;;24.13;39.42;100059.59;4479303;32;33694;-66
2021/06/05 08:47:12;;;;;;;9.23;4.30;;;;;;;24.10;39.42;100061.94;4484957;32;33891;-66
2021/06/05 08:49:41;;;;;;;8.73;3.92;;;;;;;24.12;39.41;100062.56;4483730;32;33875;-66
2021/06/05 08:52:27;;;;;;;7.68;4.28;;;;;;;24.11;39.33;100061.72;4484649;32;32992;-66
2021/06/05 08:55:15;;;;;;;9.50;3.50;;;;;;;24.13;39.29;100050.59;4485109;32;34689;-66
2021/06/05 08:58:00;;;;;;;6.72;3.65;;;;;;;24.11;39.29;100056.28;4483911;32;34570;-65
2021/06/05 09:00:43;;;;;;;6.30;3.55;;;;;;;24.13;39.25;100056.03;4472032;32;33758;-66
2021/06/05 09:03:16;;;;;;;5.40;3.05;;;;;;;24.14;39.16;100058.53;4483425;32;33414;-66
2021/06/05 09:06:06;;;;;;;7.40;3.65;;;;;;;24.11;39.22;100050.81;4484449;32;33895;-66
2021/06/05 09:08:34;;;;;;;9.10;3.80;;;;;;;24.12;39.23;100057.09;4483595;32;34328;-66
2021/06/05 09:11:10;;;;;;;8.13;3.30;;;;;;;24.13;39.13;100048.69;4484732;32;34034;-65
2021/06/05 09:13:38;;;;;;;7.15;3.60;;;;;;;24.11;39.18;100056.28;4484312;32;35073;-66
2021/06/05 09:16:18;;;;;;;10.02;3.67;;;;;;;24.15;39.14;100045.72;4484875;32;34815;-67
2021/06/05 09:18:56;;;;;;;6.85;3.60;;;;;;;24.15;38.90;100037.53;4484545;32;34707;-66
2021/06/05 09:21:27;;;;;;;7.32;3.50;;;;;;;24.14;38.80;100038.62;4485061;32;34619;-66
2021/06/05 09:24:14;;;;;;;6.87;2.90;;;;;;;24.12;38.61;100038.84;4484277;32;33314;-65
2021/06/05 09:26:47;;;;;;;8.38;3.05;;;;;;;24.15;38.40;100032.94;4483528;32;33933;-67
2021/06/05 09:29:18;;;;;;;7.28;3.55;;;;;;;24.11;38.62;100031.72;4484315;32;33924;-66
2021/06/05 09:32:09;;;;;;;8.15;3.08;;;;;;;24.10;38.70;100030.03;4484123;32;33748;-66
2021/06/05 09:34:42;;;;;;;9.65;3.40;;;;;;;24.14;38.67;100034.00;4468953;32;33371;-66
2021/06/05 09:37:27;;;;;;;7.65;3.08;;;;;;;24.12;38.73;100033.41;4468759;32;33934;-67
2021/06/05 09:40:05;;;;;;;5.65;2.90;;;;;;;24.15;38.75;100023.91;4474397;32;34848;-67
2021/06/05 09:42:35;;;;;;;5.82;3.15;;;;;;;24.13;38.79;100024.16;4484632;32;34434;-67
2021/06/05 09:45:18;;;;;;;8.07;3.22;;;;;;;24.13;38.74;100028.78;4484628;32;33759;-67
2021/06/05 09:47:46;;;;;;;6.75;3.10;;;;;;;24.14;38.66;100027.72;4483162;32;33791;-66
2021/06/05 09:50:26;;;;;;;7.10;3.22;;;;;;;24.12;38.57;100022.50;4482664;32;34012;-67
2021/06/05 09:52:54;;;;;;;6.85;3.33;;;;;;;24.15;38.49;100024.78;4483418;32;34493;-67
2021/06/05 09:55:22;;;;;;;6.05;3.03;;;;;;;24.11;38.38;100030.91;4484031;32;33812;-67
2021/06/05 09:57:49;;;;;;;7.57;2.80;;;;;;;24.12;38.22;100022.50;4484270;32;33649;-67
2021/06/05 10:00:17;;;;;;;6.45;2.87;;;;;;;24.12;38.27;100017.03;4483106;32;33475;-66
2021/06/05 10:02:46;;;;;;;5.40;2.53;;;;;;;24.14;38.22;100017.63;4484393;32;34985;-67
2021/06/05 10:05:28;;;;;;;5.35;2.80;;;;;;;24.13;38.30;100015.97;4483001;32;34268;-67
2021/06/05 10:07:58;;;;;;;8.00;3.20;;;;;;;24.16;37.85;100015.53;4484401;32;33927;-67
2021/06/05 10:10:39;;;;;;;5.22;3.08;;;;;;;24.11;38.14;100007.19;4483851;32;33590;-67
2021/06/05 10:13:12;;;;;;;6.32;2.95;;;;;;;24.10;38.01;100012.84;4483930;32;33767;-68
2021/06/05 10:15:48;;;;;;;5.12;3.10;;;;;;;24.13;38.19;100002.34;4469652;32;33018;-66
2021/06/05 10:18:18;;;;;;;7.62;3.10;;;;;;;24.12;38.25;99986.22;4470232;32;33707;-67
2021/06/05 10:20:53;;;;;;;5.80;3.22;;;;;;;24.11;38.27;99985.37;4467289;32;33897;-67
2021/06/05 10:23:29;;;;;;;7.82;3.30;;;;;;;24.14;38.23;99982.19;4467102;32;34516;-67
2021/06/05 10:25:59;;;;;;;6.18;3.62;;;;;;;24.17;38.21;99983.66;4454648;32;34062;-66
2021/06/05 10:28:35;;;;;;;5.22;3.45;;;;;;;24.13;38.24;99983.25;4453132;32;33840;-67
2021/06/05 10:31:10;;;;;;;7.12;3.50;;;;;;;24.14;38.31;99979.47;4477483;32;34615;-67
2021/06/05 10:33:43;;;;;;;7.75;4.12;;;;;;;24.14;38.28;99974.00;4482504;32;33612;-67
2021/06/05 10:36:24;;;;;;;9.00;4.28;;;;;;;24.16;38.29;99968.34;4482721;32;33439;-67
2021/06/05 10:38:51;;;;;;;10.57;4.57;;;;;;;24.15;38.29;99972.97;4470968;32;33595;-67
2021/06/05 10:41:28;;;;;;;8.13;4.70;;;;;;;24.17;38.26;99965.38;4483664;32;34788;-67
2021/06/05 10:43:56;;;;;;;;;;;;;;;24.16;38.27;99963.72;4484411;31;34454;-67
2021/06/05 10:46:48;;;;;;;8.02;3.75;;;;;;;24.16;38.50;99963.72;4483859;32;34043;-67
2021/06/05 10:49:18;;;;;;;10.98;4.47;;;;;;;24.15;38.33;99966.66;4482943;32;33831;-67
2021/06/05 10:51:47;;;;;;;9.70;4.87;;;;;;;24.14;38.49;99974.00;4483652;32;33793;-66
2021/06/05 10:54:26;;;;;;;9.23;4.35;;;;;;;24.14;38.48;99967.72;4482741;32;34396;-67
2021/06/05 10:56:57;;;;;;;9.55;4.87;;;;;;;24.18;38.42;99958.88;4483965;32;34303;-66
2021/06/05 11:00:02;;;;;;;8.68;5.30;;;;;;;24.16;38.42;99961.00;4484040;32;33772;-67
2021/06/05 11:02:41;;;;;;;10.95;5.05;;;;;;;24.20;38.34;99955.91;4459585;32;33902;-67
2021/06/05 11:05:19;;;;;;;11.57;5.05;;;;;;;24.17;38.36;99943.56;4467053;32;34506;-66
2021/06/05 11:07:47;;;;;;;7.50;4.50;;;;;;;24.18;38.38;99944.41;4468352;32;33291;-67
2021/06/05 11:11:03;;;;;;;10.80;5.03;;;;;;;24.16;38.45;99955.56;4471571;32;33816;-67
2021/06/05 11:13:35;;;;;;;8.02;5.20;;;;;;;24.16;38.53;99947.37;4460574;32;34561;-67
2021/06/05 11:16:04;;;;;;;11.27;5.62;;;;;;;24.10;38.63;99940.09;4481239;32;33651;-67
2021/06/05 11:18:32;;;;;;;11.68;6.22;;;;;;;24.14;38.52;99938.56;4483957;32;33335;-66
2021/06/05 11:21:19;;;;;;;9.13;5.70;;;;;;;24.18;38.43;99938.97;4483304;32;34458;-67
2021/06/05 11:23:56;;;;;;;9.32;5.80;;;;;;;24.20;38.37;99945.00;4483781;32;33906;-67
2021/06/05 11:26:39;;;;;;;9.77;5.72;;;;;;;24.19;38.38;99943.34;4483669;32;33753;-66
2021/06/05 11:29:19;;;;;;;11.60;6.65;;;;;;;24.20;38.37;99942.28;4483308;32;34005;-67
2021/06/05 11:31:59;;;;;;;10.85;6.62;;;;;;;24.17;38.37;99940.84;4484066;32;34645;-68
2021/06/05 11:34:33;;;;;;;11.70;6.60;;;;;;;24.15;38.54;99943.00;4483948;32;34574;-66
2021/06/05 11:37:13;;;;;;;8.98;5.50;;;;;;;24.18;38.41;99937.06;4483630;32;35275;-67
2021/06/05 11:39:50;;;;;;;12.60;6.78;;;;;;;24.19;38.44;99940.63;4483402;32;33038;-66
2021/06/05 11:42:18;;;;;;;10.88;7.00;;;;;;;24.22;38.36;99925.72;4481670;32;33649;-67
2021/06/05 11:44:55;;;;;;;11.55;6.72;;;;;;;24.21;38.29;99932.22;4483457;32;34862;-67